Time;durP1;ratioP1;P1;durP2;ratioP2;P2;SDS_P1;SDS_P2;PMS_P1;PMS_P2;Temp;Humidity;BMP_temperature;BMP_pressure;BME280_temperature;BME280_humidity;BME280_pressure;Samples;Min_cycle;Max_cycle;Signal;HPM_P1;HPM_P2
2023/02/12 00:00:42;;;;;;;25.85;10.23;;;8.10;99.90;;;;;;4652360;30;20221;-78
2023/02/12 00:03:07;;;;;;;27.73;9.73;;;8.10;99.90;;;;;;4636895;30;20292;-78
2023/02/12 00:05:37;;;;;;;28.77;9.68;;;8.10;99.90;;;;;;4637390;30;20206;-79
2023/02/12 00:08:03;;;;;;;31.33;10.52;;;8.10;99.90;;;;;;4651867;30;20224;-81
2023/02/12 00:10:28;;;;;;;22.95;9.98;;;8.10;99.90;;;;;;4651618;30;20205;-79
2023/02/12 00:12:54;;;;;;;30.65;11.10;;;8.10;99.90;;;;;;4630703;30;20236;-80
2023/02/12 00:15:20;;;;;;;32.58;11.82;;;8.10;99.90;;;;;;4638819;30;20291;-79
2023/02/12 00:17:46;;;;;;;33.28;11.43;;;8.10;99.90;;;;;;4648728;30;20620;-78
2023/02/12 00:20:12;;;;;;;31.63;11.77;;;8.00;99.90;;;;;;4651734;30;20208;-81
2023/02/12 00:22:38;;;;;;;32.03;11.55;;;8.10;99.90;;;;;;4625822;30;20292;-78
2023/02/12 00:25:04;;;;;;;31.15;10.55;;;8.00;99.90;;;;;;4648886;30;20207;-79
2023/02/12 00:27:34;;;;;;;29.38;10.63;;;8.00;99.90;;;;;;4651925;30;20217;-81
2023/02/12 00:29:59;;;;;;;40.47;10.77;;;8.00;99.90;;;;;;4638964;30;20197;-81
2023/02/12 00:32:25;;;;;;;34.60;11.45;;;8.00;99.90;;;;;;4651917;30;20206;-80
2023/02/12 00:34:51;;;;;;;34.88;11.20;;;8.00;99.90;;;;;;4628362;30;20217;-79
2023/02/12 00:37:17;;;;;;;29.75;11.40;;;8.00;99.90;;;;;;4600394;30;20221;-79
2023/02/12 00:39:43;;;;;;;36.10;12.38;;;8.00;99.90;;;;;;4637519;30;20229;-77
2023/02/12 00:42:10;;;;;;;26.67;11.52;;;8.00;99.90;;;;;;4653133;30;20215;-77
2023/02/12 00:44:36;;;;;;;24.65;11.27;;;8.00;99.90;;;;;;4637060;30;20731;-79
2023/02/12 00:47:02;;;;;;;30.67;11.88;;;8.00;99.90;;;;;;4647499;30;20228;-79
2023/02/12 00:49:32;;;;;;;29.73;11.80;;;8.00;99.90;;;;;;4633629;30;20213;-79
2023/02/12 00:52:00;;;;;;;27.88;12.38;;;8.00;99.90;;;;;;4651372;30;20204;-79
2023/02/12 00:54:26;;;;;;;26.70;11.75;;;8.00;99.90;;;;;;4652784;30;20213;-80
2023/02/12 00:56:54;;;;;;;31.30;12.25;;;8.00;99.90;;;;;;4637659;30;20204;-79
2023/02/12 00:59:21;;;;;;;26.30;12.18;;;8.00;99.90;;;;;;4648794;30;20290;-81
2023/02/12 01:01:47;;;;;;;30.73;11.98;;;8.00;99.90;;;;;;4652119;30;20193;-78
2023/02/12 01:04:14;;;;;;;36.60;12.80;;;8.00;99.90;;;;;;4638914;30;20200;-78
2023/02/12 01:06:40;;;;;;;36.47;13.02;;;8.00;99.90;;;;;;4652040;30;20240;-80
2023/02/12 01:09:06;;;;;;;32.15;12.30;;;8.00;99.90;;;;;;4611483;30;20208;-79
2023/02/12 01:11:32;;;;;;;28.75;12.25;;;8.00;99.90;;;;;;4630611;30;20256;-80
2023/02/12 01:13:59;;;;;;;36.53;12.90;;;8.00;99.90;;;;;;4652500;30;20205;-80
2023/02/12 01:16:25;;;;;;;34.08;12.63;;;8.00;99.90;;;;;;4631008;30;20707;-83
2023/02/12 01:18:53;;;;;;;36.67;14.02;;;8.00;99.90;;;;;;4638616;30;20355;-82
2023/02/12 01:21:23;;;;;;;40.85;13.75;;;8.00;99.90;;;;;;4633244;30;20193;-79
2023/02/12 01:23:49;;;;;;;32.28;12.90;;;7.90;99.90;;;;;;4652318;30;21212;-80
2023/02/12 01:26:16;;;;;;;35.60;13.80;;;8.00;99.90;;;;;;4635195;30;20273;-82
2023/02/12 01:28:43;;;;;;;39.80;12.85;;;7.90;99.90;;;;;;4652246;30;20216;-82
2023/02/12 01:31:12;;;;;;;41.70;13.27;;;8.00;99.90;;;;;;4651897;30;20347;-82
2023/02/12 01:33:38;;;;;;;34.60;13.32;;;8.00;99.90;;;;;;4652174;30;20200;-82
2023/02/12 01:36:05;;;;;;;42.85;13.32;;;8.00;99.90;;;;;;4650410;30;20285;-81
2023/02/12 01:38:31;;;;;;;43.58;13.73;;;8.00;99.90;;;;;;4631958;30;20308;-82
2023/02/12 01:41:09;;;;;;;43.92;13.50;;;8.00;99.90;;;;;;4648093;30;20206;-80
2023/02/12 01:43:38;;;;;;;40.95;13.73;;;8.00;99.90;;;;;;4627196;30;20241;-80
2023/02/12 01:46:05;;;;;;;51.08;13.63;;;8.00;99.90;;;;;;4649267;30;20669;-84
2023/02/12 01:48:47;;;;;;;52.15;14.82;;;7.90;99.90;;;;;;4644635;30;20198;-80
2023/02/12 01:51:18;;;;;;;35.45;13.18;;;7.90;99.90;;;;;;4654077;30;20267;-79
2023/02/12 01:53:50;;;;;;;48.17;13.30;;;7.90;99.90;;;;;;4643799;30;20201;-82
2023/02/12 01:56:16;;;;;;;48.42;13.82;;;7.90;99.90;;;;;;4636002;30;20197;-83
2023/02/12 01:58:46;;;;;;;47.78;13.43;;;7.90;99.90;;;;;;4637520;30;20576;-78
2023/02/12 02:01:24;;;;;;;44.70;14.50;;;7.90;99.90;;;;;;4640037;30;20212;-79
2023/02/12 02:03:56;;;;;;;54.67;15.07;;;7.80;99.90;;;;;;4653816;30;20232;-78
2023/02/12 02:06:28;;;;;;;42.97;14.50;;;7.80;99.90;;;;;;4636685;30;20245;-77
2023/02/12 02:08:55;;;;;;;49.00;14.05;;;7.80;99.90;;;;;;4656228;30;20228;-79
2023/02/12 02:17:03;;;;;;;51.50;14.68;;;7.80;99.90;;;;;;4660713;30;20411;-79
2023/02/12 02:19:35;;;;;;;54.72;15.85;;;7.70;99.90;;;;;;4645079;30;20193;-79
2023/02/12 02:22:20;;;;;;;68.95;17.42;;;7.60;99.90;;;;;;4656950;30;20298;-77
2023/02/12 02:24:53;;;;;;;61.38;16.35;;;7.70;99.90;;;;;;4636318;30;20293;-83
2023/02/12 02:27:26;;;;;;;69.50;18.35;;;7.70;99.90;;;;;;4655053;30;20500;-79
2023/02/12 02:30:24;;;;;;;71.63;17.63;;;7.70;99.90;;;;;;4657069;30;20200;-80
2023/02/12 02:33:27;;;;;;;66.13;18.10;;;7.70;99.90;;;;;;4657465;30;20206;-79
2023/02/12 02:36:37;;;;;;;53.33;17.40;;;7.70;99.90;;;;;;4614046;30;20200;-82
2023/02/12 02:39:12;;;;;;;56.50;16.95;;;7.60;99.90;;;;;;4579520;31;20206;-79
2023/02/12 02:41:45;;;;;;;54.70;18.08;;;7.60;99.90;;;;;;4644911;30;20777;-80
2023/02/12 02:44:22;;;;;;;65.65;20.42;;;7.60;99.90;;;;;;4655085;30;20201;-80
2023/02/12 02:46:51;;;;;;;71.38;20.95;;;7.60;99.90;;;;;;4653835;30;20217;-77
2023/02/12 02:49:26;;;;;;;62.30;23.20;;;7.70;99.90;;;;;;4655649;30;20212;-77
2023/02/12 02:52:02;;;;;;;68.60;21.20;;;7.60;99.90;;;;;;4654004;30;20204;-82
2023/02/12 02:54:42;;;;;;;69.05;22.42;;;7.70;99.90;;;;;;4654854;30;20201;-78
2023/02/12 02:57:23;;;;;;;70.88;22.80;;;7.70;99.90;;;;;;4655002;30;20275;-78
2023/02/12 02:59:54;;;;;;;59.88;20.85;;;7.70;99.90;;;;;;4645952;30;20972;-79
2023/02/12 03:02:40;;;;;;;58.25;20.10;;;7.60;99.90;;;;;;4653541;30;21011;-81
2023/02/12 03:05:16;;;;;;;68.13;20.48;;;7.60;99.90;;;;;;4653041;30;22417;-81
2023/02/12 03:07:54;;;;;;;59.17;18.88;;;7.70;99.90;;;;;;4652276;30;20217;-78
2023/02/12 03:10:26;;;;;;;62.22;19.60;;;7.70;99.90;;;;;;4654699;30;20411;-81
2023/02/12 03:13:11;;;;;;;57.38;20.17;;;7.60;99.90;;;;;;4644708;30;20189;-82
2023/02/12 03:15:41;;;;;;;52.50;19.30;;;7.70;99.90;;;;;;4652617;30;20284;-81
2023/02/12 03:18:12;;;;;;;53.95;19.70;;;7.70;99.90;;;;;;4648563;30;20284;-79
2023/02/12 03:20:56;;;;;;;55.92;18.95;;;7.70;99.90;;;;;;4651000;30;20205;-80
2023/02/12 03:23:26;;;;;;;63.08;18.75;;;7.60;99.90;;;;;;4654313;30;20224;-79
2023/02/12 03:26:07;;;;;;;51.13;18.02;;;7.60;99.90;;;;;;4635119;30;20655;-83
2023/02/12 03:28:35;;;;;;;63.38;19.95;;;7.60;99.90;;;;;;4651426;30;20202;-79
2023/02/12 03:31:16;;;;;;;58.20;20.00;;;7.60;99.90;;;;;;4650037;30;20208;-83
2023/02/12 03:33:51;;;;;;;68.43;19.95;;;7.60;99.90;;;;;;4649519;30;20196;-82
2023/02/12 03:36:42;;;;;;;54.78;19.60;;;7.60;99.90;;;;;;4629778;30;20200;-82
2023/02/12 03:39:18;;;;;;;55.97;18.38;;;7.60;99.90;;;;;;4610806;30;20213;-79
2023/02/12 03:41:54;;;;;;;64.25;19.25;;;7.60;99.90;;;;;;4650756;30;20193;-79
2023/02/12 03:44:47;;;;;;;54.88;18.05;;;7.60;99.90;;;;;;4653139;30;20197;-83
2023/02/12 03:47:21;;;;;;;60.08;18.65;;;7.70;99.90;;;;;;4633940;30;20277;-77
2023/02/12 03:50:16;;;;;;;54.80;17.63;;;7.60;99.90;;;;;;4651702;30;20576;-77
2023/02/12 03:52:42;;;;;;;47.83;15.43;;;7.60;99.90;;;;;;4639544;30;20751;-77
2023/02/12 03:55:08;;;;;;;48.90;16.05;;;7.60;99.90;;;;;;4653416;30;20197;-80
2023/02/12 03:57:41;;;;;;;44.63;17.13;;;7.60;99.90;;;;;;4652926;30;20196;-79
2023/02/12 04:00:18;;;;;;;49.63;16.15;;;7.60;99.90;;;;;;4650643;30;20289;-83
2023/02/12 04:02:46;;;;;;;53.95;17.15;;;7.60;99.90;;;;;;4622756;30;20296;-81
2023/02/12 04:05:21;;;;;;;49.50;15.48;;;7.60;99.90;;;;;;4652275;30;20205;-79
2023/02/12 04:07:49;;;;;;;46.83;15.20;;;7.60;99.90;;;;;;4651506;30;20645;-80
2023/02/12 04:10:15;;;;;;;46.60;15.00;;;7.50;99.90;;;;;;4651808;30;20839;-80
2023/02/12 04:13:29;;;;;;;35.88;14.25;;;7.60;99.90;;;;;;4653199;30;20193;-78
2023/02/12 04:16:04;;;;;;;41.83;13.85;;;7.60;99.90;;;;;;4635504;30;20220;-80
2023/02/12 04:18:50;;;;;;;32.40;12.27;;;7.50;99.90;;;;;;4648594;30;20203;-79
2023/02/12 04:21:44;;;;;;;34.42;11.88;;;7.60;99.90;;;;;;4638008;30;20217;-79
2023/02/12 04:24:15;;;;;;;36.63;11.10;;;7.50;99.90;;;;;;4653286;30;20678;-77
2023/02/12 04:27:08;;;;;;;39.90;12.00;;;7.50;99.90;;;;;;4652091;30;20236;-77
2023/02/12 04:29:59;;;;;;;31.33;11.38;;;7.50;99.90;;;;;;4621052;30;20216;-81
2023/02/12 04:32:45;;;;;;;33.40;11.05;;;7.40;99.90;;;;;;4647475;30;20232;-81
2023/02/12 04:35:30;;;;;;;36.85;11.10;;;7.40;99.90;;;;;;4652337;30;20193;-81
2023/02/12 04:38:10;;;;;;;27.27;11.30;;;7.40;99.90;;;;;;4652150;30;20198;-80
2023/02/12 04:40:39;;;;;;;28.25;11.02;;;7.40;99.90;;;;;;4647501;30;20322;-78
2023/02/12 04:43:05;;;;;;;32.20;11.00;;;7.40;99.90;;;;;;4652407;30;20194;-78
2023/02/12 04:45:34;;;;;;;46.97;11.32;;;7.40;99.90;;;;;;4651470;30;20716;-77
2023/02/12 04:48:00;;;;;;;32.47;10.93;;;7.30;99.90;;;;;;4652581;30;20268;-81
2023/02/12 04:50:42;;;;;;;27.10;10.02;;;7.30;99.90;;;;;;4648304;30;22730;-81
2023/02/12 04:53:09;;;;;;;27.45;9.93;;;7.30;99.90;;;;;;4651511;30;20228;-79
2023/02/12 04:55:35;;;;;;;30.13;10.07;;;7.30;99.90;;;;;;4651426;30;20271;-80
2023/02/12 04:58:01;;;;;;;31.85;10.20;;;7.30;99.90;;;;;;4629865;30;20201;-79
2023/02/12 05:00:27;;;;;;;26.88;9.10;;;7.20;99.90;;;;;;4649315;30;20205;-82
2023/02/12 05:02:52;;;;;;;23.60;9.35;;;7.20;99.90;;;;;;4648337;30;20599;-79
2023/02/12 05:05:18;;;;;;;35.60;9.20;;;7.20;99.90;;;;;;4603779;30;20235;-79
2023/02/12 05:07:44;;;;;;;21.02;8.77;;;7.20;99.90;;;;;;4624071;30;20354;-81
2023/02/12 05:10:10;;;;;;;35.90;8.25;;;7.20;99.90;;;;;;4627911;30;20303;-79
2023/02/12 05:12:36;;;;;;;26.48;8.40;;;7.20;99.90;;;;;;4652070;30;20216;-82
2023/02/12 05:15:01;;;;;;;29.52;9.63;;;7.10;99.90;;;;;;4653220;30;20323;-78
2023/02/12 05:17:27;;;;;;;25.90;9.20;;;7.10;99.90;;;;;;4631892;30;20209;-79
2023/02/12 05:19:53;;;;;;;24.48;9.60;;;7.10;99.90;;;;;;4637407;30;20212;-78
2023/02/12 05:22:19;;;;;;;24.95;9.20;;;7.10;99.90;;;;;;4646225;30;20272;-78
2023/02/12 05:24:44;;;;;;;28.35;9.77;;;7.10;99.90;;;;;;4637082;30;20677;-78
2023/02/12 05:27:10;;;;;;;28.67;9.32;;;7.10;99.90;;;;;;4651946;30;20224;-78
2023/02/12 05:29:36;;;;;;;42.53;9.38;;;7.10;99.90;;;;;;4628727;30;20213;-79
2023/02/12 05:32:02;;;;;;;41.15;9.40;;;7.10;99.90;;;;;;4622071;30;20202;-77
2023/02/12 05:34:28;;;;;;;31.75;9.00;;;7.10;99.90;;;;;;4645260;30;21222;-82
2023/02/12 05:36:54;;;;;;;45.80;9.63;;;7.00;99.90;;;;;;4633187;30;21237;-79
2023/02/12 05:39:20;;;;;;;25.55;9.90;;;7.00;99.90;;;;;;4642771;30;20205;-78
2023/02/12 05:41:46;;;;;;;40.05;9.15;;;7.00;99.90;;;;;;4651677;30;20204;-80
2023/02/12 05:44:13;;;;;;;24.48;9.48;;;6.90;99.90;;;;;;4655072;30;20200;-80
2023/02/12 05:46:40;;;;;;;22.92;9.85;;;7.00;99.90;;;;;;4656270;30;20225;-77
2023/02/12 05:49:07;;;;;;;34.08;10.05;;;7.00;99.90;;;;;;4642420;30;20248;-81
2023/02/12 05:51:32;;;;;;;28.65;9.88;;;6.90;99.90;;;;;;4655105;30;20554;-78
2023/02/12 05:54:02;;;;;;;28.55;10.65;;;6.90;99.90;;;;;;4651279;30;20201;-83
2023/02/12 05:56:36;;;;;;;25.48;10.85;;;6.90;99.90;;;;;;4642729;30;20213;-82
2023/02/12 05:59:06;;;;;;;26.67;9.95;;;6.90;99.90;;;;;;4637123;30;21497;-79
2023/02/12 06:01:38;;;;;;;33.15;11.82;;;6.80;99.90;;;;;;4645932;30;20331;-79
2023/02/12 06:04:06;;;;;;;27.08;11.35;;;7.00;99.90;;;;;;4632097;30;20232;-78
2023/02/12 06:06:33;;;;;;;30.75;11.50;;;7.00;99.90;;;;;;4638861;30;20225;-79
2023/02/12 06:08:59;;;;;;;41.40;11.65;;;7.00;99.90;;;;;;4654854;30;20205;-78
2023/02/12 06:11:25;;;;;;;27.52;12.43;;;7.00;99.90;;;;;;4651551;30;20271;-81
2023/02/12 06:13:51;;;;;;;30.38;13.02;;;7.00;99.90;;;;;;4651803;30;20216;-83
2023/02/12 06:16:26;;;;;;;27.90;12.38;;;7.00;99.90;;;;;;4648511;30;20221;-80
2023/02/12 06:18:53;;;;;;;32.78;12.18;;;7.00;99.90;;;;;;4652925;30;20339;-79
2023/02/12 06:21:20;;;;;;;27.95;12.25;;;7.00;99.90;;;;;;4640518;30;21024;-78
2023/02/12 06:23:46;;;;;;;23.17;11.98;;;7.00;99.90;;;;;;4652721;30;20277;-79
2023/02/12 06:26:12;;;;;;;35.45;13.60;;;6.90;99.90;;;;;;4653448;30;20193;-79
2023/02/12 06:28:38;;;;;;;26.60;12.30;;;7.00;99.90;;;;;;4654149;30;20288;-81
2023/02/12 06:31:04;;;;;;;32.10;13.50;;;7.00;99.90;;;;;;4640506;30;20237;-80
2023/02/12 06:33:30;;;;;;;29.00;13.88;;;7.00;99.90;;;;;;4637092;30;20213;-79
2023/02/12 06:35:56;;;;;;;29.30;14.13;;;7.00;99.90;;;;;;4627618;30;20267;-85
2023/02/12 06:38:21;;;;;;;32.30;14.30;;;7.00;99.90;;;;;;4640674;30;20312;-81
2023/02/12 06:40:47;;;;;;;34.55;14.48;;;7.00;99.90;;;;;;4653961;30;20355;-83
2023/02/12 06:43:13;;;;;;;34.33;14.45;;;7.00;99.90;;;;;;4651914;30;20687;-85
2023/02/12 06:45:39;;;;;;;33.72;13.45;;;7.00;99.90;;;;;;4651573;30;20202;-80
2023/02/12 06:48:04;;;;;;;36.28;14.13;;;7.00;99.90;;;;;;4641260;30;20255;-81
2023/02/12 06:50:30;;;;;;;30.15;14.38;;;7.00;99.90;;;;;;4651071;30;20284;-81
2023/02/12 06:52:58;;;;;;;34.40;13.95;;;7.00;99.90;;;;;;4650569;30;20209;-82
2023/02/12 06:55:24;;;;;;;31.23;13.25;;;7.00;99.90;;;;;;4652875;30;20204;-80
2023/02/12 06:57:49;;;;;;;30.38;13.48;;;7.00;99.90;;;;;;4651734;30;20303;-81
2023/02/12 07:00:16;;;;;;;28.60;13.60;;;7.00;99.90;;;;;;4650894;30;20211;-81
2023/02/12 07:02:41;;;;;;;25.20;12.68;;;7.00;99.90;;;;;;4653854;30;20249;-80
2023/02/12 07:05:07;;;;;;;28.73;13.48;;;7.00;99.90;;;;;;4653845;30;20223;-83
2023/02/12 07:07:33;;;;;;;28.40;13.27;;;7.00;99.90;;;;;;4639505;30;20220;-79
2023/02/12 07:09:59;;;;;;;25.50;13.25;;;7.00;99.90;;;;;;4650199;30;20283;-78
2023/02/12 07:12:25;;;;;;;29.23;13.77;;;7.00;99.90;;;;;;4655286;30;20206;-77
2023/02/12 07:14:50;;;;;;;27.15;13.65;;;7.00;99.90;;;;;;4654790;30;20205;-78
2023/02/12 07:17:16;;;;;;;25.92;12.38;;;7.10;99.90;;;;;;4634659;30;20201;-81
2023/02/12 07:19:42;;;;;;;27.35;13.50;;;7.00;99.90;;;;;;4631107;30;20360;-82
2023/02/12 07:22:08;;;;;;;26.02;14.45;;;7.00;99.90;;;;;;4652790;30;20730;-78
2023/02/12 07:24:33;;;;;;;25.58;13.65;;;7.00;99.90;;;;;;4632890;30;20208;-78
2023/02/12 07:26:59;;;;;;;26.42;14.20;;;7.00;99.90;;;;;;4653358;30;20378;-82
2023/02/12 07:29:25;;;;;;;28.27;14.48;;;7.00;99.90;;;;;;4655863;30;20655;-79
2023/02/12 07:31:50;;;;;;;27.45;14.98;;;7.00;99.90;;;;;;4653739;30;20193;-79
2023/02/12 07:34:16;;;;;;;30.48;15.30;;;7.00;99.90;;;;;;4654896;30;21704;-77
2023/02/12 07:36:42;;;;;;;26.67;13.02;;;7.00;99.90;;;;;;4626006;30;20284;-82
2023/02/12 07:39:10;;;;;;;26.52;13.65;;;7.10;99.90;;;;;;4640619;30;20587;-77
2023/02/12 07:41:36;;;;;;;28.52;14.27;;;7.00;99.90;;;;;;4652427;30;20220;-81
2023/02/12 07:44:06;;;;;;;27.98;14.02;;;7.00;99.90;;;;;;4650293;30;20668;-81
2023/02/12 07:46:38;;;;;;;28.75;13.45;;;7.10;99.90;;;;;;4650930;30;20194;-80
2023/02/12 07:49:05;;;;;;;24.80;13.15;;;7.10;99.90;;;;;;4637483;30;20233;-79
2023/02/12 07:51:33;;;;;;;29.45;13.70;;;7.10;99.90;;;;;;4644856;30;20252;-80
2023/02/12 07:54:00;;;;;;;27.60;14.07;;;7.10;99.90;;;;;;4648709;30;20209;-82
2023/02/12 07:56:31;;;;;;;27.35;13.48;;;7.10;99.90;;;;;;4653563;30;20255;-78
2023/02/12 07:59:02;;;;;;;26.20;13.60;;;7.10;99.90;;;;;;4655564;30;20208;-82
2023/02/12 08:01:31;;;;;;;27.25;13.23;;;7.10;99.90;;;;;;4647502;30;20283;-76
2023/02/12 08:04:02;;;;;;;29.63;14.02;;;7.20;99.90;;;;;;4637015;30;20242;-78
2023/02/12 08:06:31;;;;;;;28.20;14.27;;;7.20;99.90;;;;;;4636689;30;20206;-81
2023/02/12 08:08:59;;;;;;;30.80;14.95;;;7.20;99.90;;;;;;4640658;30;20339;-78
2023/02/12 08:11:26;;;;;;;33.95;15.05;;;7.20;99.90;;;;;;4635704;30;20617;-78
2023/02/12 08:13:53;;;;;;;32.50;15.32;;;7.20;99.90;;;;;;4634564;30;20204;-83
2023/02/12 08:16:23;;;;;;;32.80;14.98;;;7.30;99.90;;;;;;4632360;30;20201;-82
2023/02/12 08:18:50;;;;;;;30.13;15.43;;;7.30;99.90;;;;;;4629514;30;20292;-77
2023/02/12 08:21:21;;;;;;;32.58;15.60;;;7.30;99.90;;;;;;4637540;30;20285;-76
2023/02/12 08:23:51;;;;;;;32.10;15.35;;;7.30;99.90;;;;;;4637466;30;20640;-81
2023/02/12 08:26:21;;;;;;;33.13;16.63;;;7.30;99.90;;;;;;4632734;30;20197;-78
2023/02/12 08:28:49;;;;;;;33.95;15.85;;;7.30;99.90;;;;;;4634202;30;20202;-77
2023/02/12 08:31:21;;;;;;;35.45;16.50;;;7.30;99.90;;;;;;4634043;30;21023;-77
2023/02/12 08:33:48;;;;;;;32.95;15.32;;;7.30;99.90;;;;;;4638072;30;20202;-78
2023/02/12 08:36:17;;;;;;;30.48;15.18;;;7.40;99.90;;;;;;4635712;30;20212;-84
2023/02/12 08:38:44;;;;;;;31.38;15.60;;;7.40;99.90;;;;;;4639304;30;20207;-77
2023/02/12 08:41:15;;;;;;;29.00;15.45;;;7.40;99.90;;;;;;4633982;30;20233;-77
2023/02/12 08:43:42;;;;;;;34.47;15.73;;;7.40;99.90;;;;;;4652876;30;20193;-81
2023/02/12 08:46:13;;;;;;;31.83;15.65;;;7.40;99.90;;;;;;4641984;30;20201;-79
2023/02/12 08:48:41;;;;;;;30.67;15.63;;;7.40;99.90;;;;;;4639733;30;20226;-80
2023/02/12 08:51:17;;;;;;;32.58;15.63;;;7.40;99.90;;;;;;4637699;30;20212;-78
2023/02/12 08:53:46;;;;;;;37.38;15.88;;;7.50;99.90;;;;;;4636638;30;20257;-80
2023/02/12 08:56:14;;;;;;;32.45;16.13;;;7.50;99.90;;;;;;4638285;30;20197;-79
2023/02/12 08:58:41;;;;;;;35.67;16.55;;;7.50;99.90;;;;;;4629802;30;20687;-81
2023/02/12 09:01:14;;;;;;;32.30;14.52;;;7.50;99.90;;;;;;4636014;30;20210;-84
2023/02/12 09:03:41;;;;;;;33.85;15.63;;;7.60;99.90;;;;;;4647255;30;20237;-82
2023/02/12 09:06:07;;;;;;;35.70;16.15;;;7.60;99.90;;;;;;4657108;30;20545;-86
2023/02/12 09:08:34;;;;;;;39.55;16.02;;;7.60;99.90;;;;;;4638173;30;20217;-77
2023/02/12 09:11:04;;;;;;;38.65;17.02;;;7.60;99.90;;;;;;4634356;30;20355;-83
2023/02/12 09:13:30;;;;;;;37.97;17.67;;;7.60;99.90;;;;;;4653795;30;21033;-77
2023/02/12 09:15:56;;;;;;;36.15;16.67;;;7.60;99.90;;;;;;4652265;30;20206;-77
2023/02/12 09:18:22;;;;;;;40.13;17.33;;;7.60;99.90;;;;;;4650861;30;20208;-77
2023/02/12 09:20:47;;;;;;;43.42;18.13;;;7.70;99.90;;;;;;4635305;30;20624;-77
2023/02/12 09:23:14;;;;;;;35.70;17.33;;;7.70;99.90;;;;;;4654428;30;20311;-76
2023/02/12 09:25:44;;;;;;;40.22;16.83;;;7.70;99.90;;;;;;4654182;30;20303;-78
2023/02/12 09:28:13;;;;;;;40.22;17.55;;;7.70;99.90;;;;;;4653665;30;20239;-80
2023/02/12 09:30:39;;;;;;;37.03;18.38;;;7.70;99.90;;;;;;4653072;30;20197;-76
2023/02/12 09:33:06;;;;;;;36.83;17.67;;;7.80;99.90;;;;;;4628669;30;20285;-80
2023/02/12 09:35:38;;;;;;;45.22;19.00;;;7.80;99.90;;;;;;4630591;30;20189;-75
2023/02/12 09:38:05;;;;;;;37.95;18.65;;;7.80;99.90;;;;;;4652998;30;20212;-80
2023/02/12 09:40:50;;;;;;;35.38;18.13;;;7.90;99.90;;;;;;4640054;30;20193;-77
2023/02/12 09:43:18;;;;;;;44.13;17.70;;;7.90;99.90;;;;;;4648096;30;20269;-80
2023/02/12 09:45:56;;;;;;;38.50;18.90;;;8.00;99.90;;;;;;4652116;30;20267;-74
2023/02/12 09:48:31;;;;;;;37.00;18.05;;;8.00;99.90;;;;;;4651073;30;20781;-75
2023/02/12 09:51:02;;;;;;;35.63;18.10;;;8.10;99.90;;;;;;4649548;30;20733;-76
2023/02/12 09:53:30;;;;;;;38.25;17.95;;;8.10;99.90;;;;;;4653119;30;20298;-77
2023/02/12 09:55:56;;;;;;;39.05;18.55;;;8.10;99.90;;;;;;4653751;30;20194;-75
2023/02/12 09:58:50;;;;;;;40.90;18.80;;;8.10;99.90;;;;;;4638487;30;20247;-76
2023/02/12 10:01:18;;;;;;;42.53;19.00;;;8.20;99.90;;;;;;4647775;30;20189;-75
2023/02/12 10:03:46;;;;;;;39.45;19.20;;;8.20;99.90;;;;;;4656274;30;20246;-79
2023/02/12 10:06:16;;;;;;;39.45;19.08;;;8.20;99.90;;;;;;4655172;30;20348;-76
2023/02/12 10:09:09;;;;;;;39.35;19.85;;;8.30;99.90;;;;;;4652674;30;20224;-76
2023/02/12 10:11:52;;;;;;;42.55;19.70;;;8.30;99.90;;;;;;4649637;30;20193;-76
2023/02/12 10:15:09;;;;;;;40.42;19.23;;;8.30;99.90;;;;;;4647902;30;20205;-76
2023/02/12 10:17:41;;;;;;;42.13;19.13;;;8.30;99.90;;;;;;4611456;30;20205;-77
2023/02/12 10:20:32;;;;;;;45.60;20.50;;;8.30;99.90;;;;;;4628004;30;20197;-78
2023/02/12 10:23:08;;;;;;;42.03;19.20;;;8.40;99.90;;;;;;4650749;30;20261;-77
2023/02/12 10:25:46;;;;;;;39.75;19.67;;;8.40;99.90;;;;;;4646421;30;20205;-74
2023/02/12 10:28:34;;;;;;;43.10;20.77;;;8.50;99.90;;;;;;4651697;30;20252;-76
2023/02/12 10:31:10;;;;;;;41.35;19.52;;;8.50;99.90;;;;;;4654213;30;21342;-78
2023/02/12 10:33:42;;;;;;;39.60;19.75;;;8.60;99.90;;;;;;4654164;30;20194;-76
2023/02/12 10:36:17;;;;;;;40.25;19.30;;;8.60;99.90;;;;;;4654892;30;20279;-78
2023/02/12 10:38:48;;;;;;;42.65;19.17;;;8.60;99.90;;;;;;4650465;30;20270;-75
2023/02/12 10:41:15;;;;;;;42.22;20.17;;;8.70;99.90;;;;;;4653956;30;20928;-79
2023/02/12 10:43:41;;;;;;;35.67;19.27;;;8.70;99.90;;;;;;4654248;30;20201;-75
2023/02/12 10:46:17;;;;;;;38.60;19.48;;;8.70;99.90;;;;;;4655586;30;20194;-75
2023/02/12 10:48:52;;;;;;;35.90;19.25;;;8.70;99.90;;;;;;4650693;30;20263;-78
2023/02/12 10:51:45;;;;;;;37.50;19.65;;;8.80;99.90;;;;;;4654398;30;20197;-79
2023/02/12 10:54:31;;;;;;;38.45;19.77;;;8.80;99.90;;;;;;4639048;30;20205;-82
2023/02/12 10:56:57;;;;;;;38.78;19.23;;;8.80;99.90;;;;;;4653876;30;20199;-79
2023/02/12 10:59:23;;;;;;;38.65;19.08;;;8.90;99.90;;;;;;4654746;30;20198;-79
2023/02/12 11:01:50;;;;;;;39.45;19.88;;;8.90;99.90;;;;;;4654066;30;20212;-76
2023/02/12 11:04:36;;;;;;;38.92;20.20;;;8.90;99.90;;;;;;4653151;30;20247;-81
2023/02/12 11:07:07;;;;;;;36.50;20.15;;;8.90;99.90;;;;;;4652835;30;20236;-77
2023/02/12 11:09:44;;;;;;;39.97;20.55;;;8.90;99.90;;;;;;4654276;30;20206;-80
2023/02/12 11:12:22;;;;;;;35.50;19.40;;;9.00;99.90;;;;;;4655378;30;20631;-76
2023/02/12 11:14:51;;;;;;;35.88;19.52;;;9.10;99.90;;;;;;4651580;30;20652;-78
2023/02/12 11:17:32;;;;;;;37.70;19.23;;;9.10;99.90;;;;;;4649653;30;20224;-80
2023/02/12 11:20:25;;;;;;;35.10;19.30;;;9.20;99.90;;;;;;4654883;30;20798;-77
2023/02/12 11:22:54;;;;;;;33.20;18.38;;;9.20;99.90;;;;;;4645707;30;20304;-78
2023/02/12 11:25:22;;;;;;;36.45;19.13;;;9.30;99.90;;;;;;4653407;30;20212;-77
2023/02/12 11:28:03;;;;;;;34.33;17.80;;;9.40;99.90;;;;;;4649498;30;20306;-77
2023/02/12 11:30:29;;;;;;;32.92;16.27;;;9.50;99.90;;;;;;4653833;30;22013;-77
2023/02/12 11:33:15;;;;;;;32.03;17.02;;;9.50;99.90;;;;;;4651414;30;20217;-78
2023/02/12 11:36:06;;;;;;;30.52;16.13;;;9.60;99.90;;;;;;4650606;30;20209;-80
2023/02/12 11:38:36;;;;;;;27.48;15.13;;;9.60;99.90;;;;;;4653954;30;20217;-79
2023/02/12 11:41:22;;;;;;;31.27;15.88;;;9.60;99.90;;;;;;4652871;30;20217;-79
2023/02/12 11:43:48;;;;;;;28.75;15.50;;;9.60;99.90;;;;;;4651661;30;20655;-78
2023/02/12 11:46:26;;;;;;;25.17;14.57;;;9.60;99.90;;;;;;4634417;30;20576;-79
2023/02/12 11:48:54;;;;;;;23.58;12.32;;;9.70;99.90;;;;;;4652884;30;20213;-79
2023/02/12 11:51:28;;;;;;;27.05;13.85;;;9.70;99.90;;;;;;4653089;30;20197;-80
2023/02/12 11:54:01;;;;;;;26.73;13.65;;;9.80;99.90;;;;;;4644709;30;20220;-77
2023/02/12 11:56:47;;;;;;;25.75;14.05;;;9.80;99.90;;;;;;4652961;30;20197;-80
2023/02/12 11:59:37;;;;;;;26.38;14.10;;;9.90;99.90;;;;;;4639841;30;20193;-80
2023/02/12 12:02:15;;;;;;;27.70;15.02;;;10.00;99.90;;;;;;4648830;30;20201;-79
2023/02/12 12:04:42;;;;;;;32.92;13.40;;;10.10;99.90;;;;;;4653082;30;20216;-80
2023/02/12 12:07:19;;;;;;;26.70;13.15;;;10.20;99.90;;;;;;4637499;30;20221;-78
2023/02/12 12:09:56;;;;;;;22.75;12.85;;;10.30;99.90;;;;;;4654158;30;20300;-76
2023/02/12 12:12:35;;;;;;;21.77;12.80;;;10.30;99.90;;;;;;4629357;30;20194;-80
2023/02/12 12:21:15;;;;;;;23.33;11.95;;;10.50;99.90;;;;;;4651116;30;20227;-76
2023/02/12 12:24:02;;;;;;;21.55;12.60;;;10.50;99.90;;;;;;4651453;30;20190;-77
2023/02/12 12:26:33;;;;;;;23.30;13.23;;;10.50;99.90;;;;;;4652502;30;20722;-76
2023/02/12 12:28:58;;;;;;;19.80;11.45;;;10.50;99.90;;;;;;4652764;30;20773;-81
2023/02/12 12:32:08;;;;;;;22.10;11.55;;;10.50;99.90;;;;;;4645835;30;20205;-76
2023/02/12 12:34:33;;;;;;;21.40;11.85;;;10.50;99.90;;;;;;4643134;30;20241;-75
2023/02/12 12:37:13;;;;;;;20.98;11.55;;;10.50;99.90;;;;;;4637462;30;20464;-79
2023/02/12 12:39:58;;;;;;;18.83;10.55;;;10.40;99.90;;;;;;4651525;30;20276;-77
2023/02/12 12:42:29;;;;;;;14.73;7.13;;;10.40;99.90;;;;;;4650924;30;20182;-76
2023/02/12 12:45:32;;;;;;;12.52;6.40;;;10.40;99.90;;;;;;4650763;30;20198;-77
2023/02/12 12:48:32;;;;;;;5.85;2.67;;;10.40;99.90;;;;;;4652274;30;20224;-78
2023/02/12 12:51:19;;;;;;;5.03;2.00;;;10.40;99.90;;;;;;4647753;30;20218;-82
2023/02/12 12:54:38;;;;;;;4.45;2.25;;;10.40;99.90;;;;;;4650723;30;20221;-80
2023/02/12 12:57:18;;;;;;;2.20;1.45;;;10.40;99.90;;;;;;4589514;31;20211;-77
2023/02/12 12:59:44;;;;;;;2.72;1.40;;;10.40;99.90;;;;;;4557826;31;20262;-76
2023/02/12 13:02:31;;;;;;;3.78;1.40;;;10.40;99.90;;;;;;4609647;30;20316;-77
2023/02/12 13:05:34;;;;;;;1.48;1.10;;;10.50;99.90;;;;;;4633163;30;20418;-78
2023/02/12 13:08:22;;;;;;;2.80;1.38;;;10.50;99.90;;;;;;4652570;30;20235;-76
2023/02/12 13:10:54;;;;;;;5.53;1.40;;;10.50;99.90;;;;;;4648586;30;20201;-76
2023/02/12 13:13:31;;;;;;;3.60;2.40;;;10.50;99.90;;;;;;4651746;30;20197;-77
2023/02/12 13:16:03;;;;;;;13.70;6.20;;;10.50;99.90;;;;;;4646540;30;20193;-79